Time;durP1;ratioP1;P1;durP2;ratioP2;P2;SDS_P1;SDS_P2;PMS_P1;PMS_P2;Temp;Humidity;BMP_temperature;BMP_pressure;BME280_temperature;BME280_humidity;BME280_pressure;Samples;Min_cycle;Max_cycle;Signal;HPM_P1;HPM_P2
2022/02/25 00:00:26;;;;;;;4.30;1.40;;;5.20;99.90;;;;;;5055509;28;20766;-71
2022/02/25 00:02:53;;;;;;;1.30;1.10;;;5.20;99.90;;;;;;5055471;28;20963;-72
2022/02/25 00:05:20;;;;;;;1.50;1.40;;;5.10;99.90;;;;;;5055552;28;20455;-72
2022/02/25 00:07:46;;;;;;;1.33;1.17;;;5.10;99.90;;;;;;5055426;28;20459;-71
2022/02/25 00:10:13;;;;;;;1.70;1.23;;;5.10;99.90;;;;;;5055379;28;20459;-71
2022/02/25 00:12:41;;;;;;;1.57;1.47;;;5.10;99.90;;;;;;5055537;28;20497;-71
2022/02/25 00:15:08;;;;;;;1.73;1.23;;;5.10;99.90;;;;;;5055080;28;20459;-71
2022/02/25 00:17:36;;;;;;;2.53;1.60;;;5.10;99.90;;;;;;5055137;28;20486;-70
2022/02/25 00:20:03;;;;;;;3.10;1.40;;;5.10;99.90;;;;;;5055231;28;20463;-70
2022/02/25 00:22:30;;;;;;;14.30;1.90;;;5.10;99.90;;;;;;5054841;28;20490;-71
2022/02/25 00:24:57;;;;;;;1.70;1.43;;;5.10;99.90;;;;;;5055601;28;20768;-71
2022/02/25 00:27:24;;;;;;;3.67;1.60;;;5.10;99.90;;;;;;5055127;28;20546;-72
2022/02/25 00:29:50;;;;;;;6.00;1.30;;;5.10;99.90;;;;;;5055069;28;20558;-72
2022/02/25 00:32:17;;;;;;;2.60;1.53;;;5.10;99.90;;;;;;5055380;28;20477;-69
2022/02/25 00:34:45;;;;;;;2.77;1.60;;;5.10;99.90;;;;;;5055688;28;20462;-71
2022/02/25 00:37:12;;;;;;;1.73;1.40;;;5.10;99.90;;;;;;5054998;28;20947;-71
2022/02/25 00:39:40;;;;;;;2.53;1.53;;;5.10;99.90;;;;;;5055198;28;20455;-73
2022/02/25 00:42:10;;;;;;;3.00;1.70;;;5.10;99.90;;;;;;5055025;28;20487;-72
2022/02/25 00:44:37;;;;;;;1.50;1.37;;;5.10;99.90;;;;;;5056094;28;20486;-71
2022/02/25 00:47:05;;;;;;;2.03;1.70;;;5.10;99.90;;;;;;5057608;28;20481;-71
2022/02/25 00:49:32;;;;;;;1.37;1.27;;;5.10;99.90;;;;;;5057981;28;20943;-72
2022/02/25 00:52:00;;;;;;;2.00;1.53;;;5.00;99.90;;;;;;5057514;28;20529;-72
2022/02/25 00:54:27;;;;;;;2.10;1.60;;;5.00;99.90;;;;;;5057227;28;20455;-71
2022/02/25 00:56:53;;;;;;;2.20;1.53;;;5.00;99.90;;;;;;5057303;28;20470;-73
2022/02/25 00:59:20;;;;;;;1.60;1.30;;;5.00;99.90;;;;;;5056255;28;20459;-71
2022/02/25 01:01:47;;;;;;;2.10;1.80;;;5.00;99.90;;;;;;5055092;28;20479;-72
2022/02/25 01:04:14;;;;;;;2.93;1.60;;;5.00;99.90;;;;;;5054883;28;20454;-71
2022/02/25 01:06:42;;;;;;;1.80;1.50;;;5.00;99.90;;;;;;5054990;28;20459;-72
2022/02/25 01:09:11;;;;;;;2.17;1.40;;;5.00;99.90;;;;;;5056516;28;20480;-71
2022/02/25 01:11:38;;;;;;;1.30;1.20;;;4.90;99.90;;;;;;5058921;28;20450;-71
2022/02/25 01:14:05;;;;;;;3.83;1.60;;;4.90;99.90;;;;;;5059045;28;20942;-71
2022/02/25 01:16:35;;;;;;;1.70;1.30;;;4.90;99.90;;;;;;5058571;28;20455;-71
2022/02/25 01:19:01;;;;;;;3.73;1.80;;;4.90;99.90;;;;;;5058398;28;20459;-72
2022/02/25 01:21:28;;;;;;;2.00;1.30;;;4.90;99.90;;;;;;5058523;28;20513;-72
2022/02/25 01:23:55;;;;;;;2.40;1.53;;;4.90;99.90;;;;;;5058082;28;20995;-72
2022/02/25 01:26:23;;;;;;;6.87;1.90;;;4.80;99.90;;;;;;5058545;28;20478;-71
2022/02/25 01:28:50;;;;;;;2.17;1.50;;;4.80;99.90;;;;;;5058568;28;20788;-71
2022/02/25 01:31:19;;;;;;;2.43;1.30;;;4.90;99.90;;;;;;5058435;28;20459;-71
2022/02/25 01:33:46;;;;;;;2.50;2.03;;;4.90;99.90;;;;;;5058415;28;20452;-71
2022/02/25 01:36:13;;;;;;;3.50;1.50;;;4.80;99.90;;;;;;5058720;28;20520;-72
2022/02/25 01:38:40;;;;;;;2.80;1.40;;;4.80;99.90;;;;;;5058569;28;20455;-72
2022/02/25 01:41:06;;;;;;;5.60;2.00;;;4.80;99.90;;;;;;5058048;28;20963;-72
2022/02/25 01:43:34;;;;;;;2.00;1.80;;;4.80;99.90;;;;;;5059021;28;20455;-72
2022/02/25 01:46:01;;;;;;;3.90;1.43;;;4.80;99.90;;;;;;5058626;28;20466;-72
2022/02/25 01:48:28;;;;;;;3.40;1.47;;;4.80;99.90;;;;;;5058555;28;20462;-72
2022/02/25 01:50:55;;;;;;;2.80;1.50;;;4.80;99.90;;;;;;5058393;28;20451;-72
2022/02/25 01:53:23;;;;;;;2.07;1.30;;;4.80;99.90;;;;;;5058335;28;20463;-72
2022/02/25 01:55:49;;;;;;;3.47;2.50;;;4.90;99.90;;;;;;5058140;28;20461;-71
2022/02/25 01:58:16;;;;;;;3.17;1.53;;;4.90;99.90;;;;;;5057744;28;20826;-72
2022/02/25 02:00:44;;;;;;;3.10;1.53;;;4.90;99.90;;;;;;5057594;28;20779;-72
2022/02/25 02:03:11;;;;;;;3.03;1.80;;;4.90;99.90;;;;;;5057492;28;20930;-72
2022/02/25 02:05:38;;;;;;;3.13;1.57;;;4.90;99.90;;;;;;5057602;28;20807;-72
2022/02/25 02:08:05;;;;;;;3.37;1.47;;;5.00;99.90;;;;;;5057514;28;20529;-72
2022/02/25 02:10:32;;;;;;;2.73;1.70;;;4.90;99.90;;;;;;5057548;28;20469;-71
2022/02/25 02:12:59;;;;;;;2.00;1.67;;;4.90;99.90;;;;;;5056952;28;20462;-71
2022/02/25 02:15:26;;;;;;;3.13;1.70;;;4.90;99.90;;;;;;5057302;28;20463;-71
2022/02/25 02:17:54;;;;;;;2.10;1.90;;;4.90;99.90;;;;;;5057436;28;20463;-71
2022/02/25 02:20:20;;;;;;;3.70;1.67;;;4.90;99.90;;;;;;5056828;28;20490;-71
2022/02/25 02:22:49;;;;;;;3.00;1.80;;;4.90;99.90;;;;;;5057022;28;20491;-71
2022/02/25 02:25:15;;;;;;;2.27;1.70;;;4.80;99.90;;;;;;5057145;28;20546;-71
2022/02/25 02:30:27;;;;;;;4.50;1.73;;;4.80;99.90;;;;;;5057292;28;20434;-71
2022/02/25 02:32:54;;;;;;;2.90;1.97;;;4.80;99.90;;;;;;5058374;28;20459;-72
2022/02/25 02:35:21;;;;;;;3.07;2.07;;;4.80;99.90;;;;;;5057705;28;20455;-72
2022/02/25 02:37:49;;;;;;;5.53;1.90;;;4.80;99.90;;;;;;5058339;28;20466;-72
2022/02/25 02:40:16;;;;;;;5.20;2.17;;;4.80;99.90;;;;;;5057444;28;20490;-73
2022/02/25 02:42:42;;;;;;;2.93;2.10;;;4.80;99.90;;;;;;5056759;28;20486;-71
2022/02/25 02:45:11;;;;;;;2.43;1.87;;;4.70;99.90;;;;;;5056701;28;20919;-70
2022/02/25 02:47:37;;;;;;;2.60;2.03;;;4.70;99.90;;;;;;5057161;28;20451;-72
2022/02/25 02:50:05;;;;;;;4.20;1.83;;;4.60;99.90;;;;;;5056606;28;20459;-72
2022/02/25 02:52:32;;;;;;;2.27;1.90;;;4.60;99.90;;;;;;5057279;28;20455;-69
2022/02/25 02:55:00;;;;;;;4.70;2.47;;;4.50;99.90;;;;;;5057522;28;20459;-70
2022/02/25 02:57:27;;;;;;;4.43;2.20;;;4.50;99.90;;;;;;5057286;28;20930;-70
2022/02/25 02:59:54;;;;;;;4.70;2.40;;;4.50;99.90;;;;;;5057155;28;20459;-69
2022/02/25 03:02:21;;;;;;;4.07;2.37;;;4.40;99.90;;;;;;5056929;28;20505;-69
2022/02/25 03:04:48;;;;;;;4.27;2.10;;;4.40;99.90;;;;;;5057157;28;20455;-69
2022/02/25 03:07:15;;;;;;;4.03;2.60;;;4.40;99.90;;;;;;5057097;28;20470;-69
2022/02/25 03:09:42;;;;;;;6.10;2.27;;;4.40;99.90;;;;;;5056925;28;20556;-70
2022/02/25 03:12:10;;;;;;;7.17;2.47;;;4.40;99.90;;;;;;5057180;28;20466;-70
2022/02/25 03:14:37;;;;;;;6.93;3.30;;;4.40;99.90;;;;;;5057223;28;20470;-70
2022/02/25 03:17:05;;;;;;;4.13;2.20;;;4.40;99.90;;;;;;5058981;28;20455;-69
2022/02/25 03:19:36;;;;;;;7.70;2.70;;;4.40;99.90;;;;;;5057953;28;20466;-70
2022/02/25 03:22:02;;;;;;;5.13;2.77;;;4.40;99.90;;;;;;5057370;28;20475;-69
2022/02/25 03:24:29;;;;;;;6.10;4.40;;;4.40;99.90;;;;;;5056813;28;20462;-70
2022/02/25 03:26:56;;;;;;;9.70;2.63;;;4.40;99.90;;;;;;5058104;28;20470;-70
2022/02/25 03:29:24;;;;;;;10.40;2.50;;;4.30;99.90;;;;;;5059693;28;20791;-70
2022/02/25 03:31:51;;;;;;;5.67;2.70;;;4.30;99.90;;;;;;5059551;28;20447;-70
2022/02/25 03:34:18;;;;;;;5.07;2.73;;;4.30;99.90;;;;;;5059095;28;20466;-70
2022/02/25 03:36:45;;;;;;;8.50;2.40;;;4.30;99.90;;;;;;5059469;28;20502;-71
2022/02/25 03:39:11;;;;;;;4.60;3.13;;;4.20;99.90;;;;;;5060273;28;20458;-70
2022/02/25 03:41:38;;;;;;;5.77;2.50;;;4.20;99.90;;;;;;5060323;28;20487;-70
2022/02/25 03:44:05;;;;;;;5.60;2.93;;;4.20;99.90;;;;;;5057530;28;20497;-70
2022/02/25 03:46:33;;;;;;;7.53;3.13;;;4.20;99.90;;;;;;5056576;28;20928;-70
2022/02/25 03:49:00;;;;;;;6.63;2.93;;;4.20;99.90;;;;;;5056527;28;20459;-70
2022/02/25 03:51:29;;;;;;;4.17;3.03;;;4.20;99.90;;;;;;5056186;28;20749;-70
2022/02/25 03:53:56;;;;;;;8.27;3.10;;;4.10;99.90;;;;;;5056214;28;20455;-70
2022/02/25 03:56:23;;;;;;;8.17;4.30;;;4.10;99.90;;;;;;5056160;28;20839;-70
2022/02/25 03:58:50;;;;;;;7.40;3.10;;;4.10;99.90;;;;;;5055717;28;20490;-70
2022/02/25 04:01:17;;;;;;;5.10;2.90;;;4.00;99.90;;;;;;5055863;28;20506;-70
2022/02/25 04:03:45;;;;;;;6.37;3.23;;;4.00;99.90;;;;;;5055970;28;20803;-70
2022/02/25 04:06:11;;;;;;;7.63;3.47;;;4.00;99.90;;;;;;5056082;28;20459;-70
2022/02/25 04:08:38;;;;;;;5.40;3.23;;;4.00;99.90;;;;;;5055545;28;20471;-70
2022/02/25 04:11:05;;;;;;;4.30;2.80;;;4.00;99.90;;;;;;5055432;28;20935;-70
2022/02/25 04:13:32;;;;;;;7.30;2.83;;;4.00;99.90;;;;;;5055127;28;20490;-70
2022/02/25 04:15:59;;;;;;;6.00;3.10;;;4.00;99.90;;;;;;5055223;28;20463;-70
2022/02/25 04:18:25;;;;;;;6.10;2.70;;;3.90;99.90;;;;;;5055305;28;20466;-70
2022/02/25 04:20:56;;;;;;;5.20;2.73;;;3.90;99.90;;;;;;5055153;28;20815;-70
2022/02/25 04:23:23;;;;;;;7.83;3.73;;;3.90;99.90;;;;;;5055493;28;20478;-70
2022/02/25 04:25:50;;;;;;;6.57;2.60;;;3.90;99.90;;;;;;5055586;28;20463;-71
2022/02/25 04:28:17;;;;;;;5.40;2.63;;;3.80;99.90;;;;;;5054959;28;20459;-70
2022/02/25 04:30:44;;;;;;;3.13;2.50;;;3.80;99.90;;;;;;5055391;28;20455;-69
2022/02/25 04:33:11;;;;;;;6.43;3.03;;;3.80;99.90;;;;;;5055065;28;20455;-70
2022/02/25 04:35:39;;;;;;;6.20;2.53;;;3.80;99.90;;;;;;5055188;28;20459;-70
2022/02/25 04:38:08;;;;;;;8.43;3.70;;;3.80;99.90;;;;;;5054796;28;20454;-70
2022/02/25 04:40:35;;;;;;;4.57;3.10;;;3.80;99.90;;;;;;5055026;28;20486;-69
2022/02/25 04:43:02;;;;;;;6.37;3.87;;;3.80;99.90;;;;;;5055127;28;20497;-71
2022/02/25 04:45:29;;;;;;;4.43;3.20;;;3.80;99.90;;;;;;5061358;28;20802;-70
2022/02/25 04:47:57;;;;;;;8.30;2.90;;;3.80;99.90;;;;;;5061563;28;20455;-71
2022/02/25 04:50:24;;;;;;;2.90;2.60;;;3.80;99.90;;;;;;5061870;28;20802;-70
2022/02/25 04:52:52;;;;;;;5.77;3.77;;;3.80;99.90;;;;;;5061240;28;20455;-70
2022/02/25 04:55:20;;;;;;;6.70;3.70;;;3.80;99.90;;;;;;5061291;28;20954;-72
2022/02/25 04:57:47;;;;;;;4.07;3.07;;;3.80;99.90;;;;;;5061815;28;20490;-70
2022/02/25 05:00:15;;;;;;;4.87;2.87;;;3.80;99.90;;;;;;5061726;28;20470;-70
2022/02/25 05:02:43;;;;;;;8.20;3.80;;;3.80;99.90;;;;;;5061603;28;20479;-70
2022/02/25 05:05:10;;;;;;;6.07;3.07;;;3.80;99.90;;;;;;5061842;28;20455;-70
2022/02/25 05:07:37;;;;;;;6.73;3.03;;;3.80;99.90;;;;;;5061812;28;20467;-71
2022/02/25 05:10:06;;;;;;;7.13;3.60;;;3.70;99.90;;;;;;5061409;28;20463;-70
2022/02/25 05:12:34;;;;;;;4.60;3.30;;;3.70;99.90;;;;;;5060998;28;20459;-70
2022/02/25 05:20:29;;;;;;;6.00;3.33;;;3.80;99.90;;;;;;5061085;28;20886;-71
2022/02/25 05:22:58;;;;;;;3.40;3.00;;;3.80;99.90;;;;;;5061231;28;20486;-70
2022/02/25 05:25:26;;;;;;;3.73;3.30;;;3.70;99.90;;;;;;5061734;28;20469;-70
2022/02/25 05:27:56;;;;;;;8.80;3.13;;;3.70;99.90;;;;;;5060781;28;20459;-70
2022/02/25 05:30:24;;;;;;;7.73;3.10;;;3.70;99.90;;;;;;5061163;28;20440;-70
2022/02/25 05:32:51;;;;;;;6.90;3.50;;;3.70;99.90;;;;;;5060798;28;20461;-70
2022/02/25 05:35:19;;;;;;;4.43;3.07;;;3.80;99.90;;;;;;5061232;28;20825;-70
2022/02/25 05:37:47;;;;;;;4.67;3.10;;;3.80;99.90;;;;;;5061092;28;20455;-70
2022/02/25 05:40:16;;;;;;;8.57;3.30;;;3.80;99.90;;;;;;5060835;28;20483;-70
2022/02/25 05:42:43;;;;;;;6.13;3.93;;;3.80;99.90;;;;;;5061207;28;20560;-70
2022/02/25 05:45:12;;;;;;;5.97;3.07;;;3.80;99.90;;;;;;5061022;28;20459;-69
2022/02/25 05:47:39;;;;;;;5.30;3.00;;;3.80;99.90;;;;;;5061709;28;20455;-70
2022/02/25 05:50:08;;;;;;;6.50;2.93;;;3.70;99.90;;;;;;5061248;28;20478;-69
2022/02/25 05:52:36;;;;;;;5.00;2.60;;;3.70;99.90;;;;;;5061486;28;20927;-70
2022/02/25 05:55:03;;;;;;;2.97;2.77;;;3.70;99.90;;;;;;5061217;28;20458;-70
2022/02/25 05:57:29;;;;;;;7.53;3.30;;;3.70;99.90;;;;;;5059785;28;20588;-70
2022/02/25 05:59:56;;;;;;;5.80;2.90;;;3.70;99.90;;;;;;5061953;28;20458;-70
2022/02/25 06:02:24;;;;;;;6.30;3.20;;;3.60;99.90;;;;;;5059785;28;20483;-70
2022/02/25 06:04:51;;;;;;;9.23;2.90;;;3.70;99.90;;;;;;5060145;28;20455;-70
2022/02/25 06:07:18;;;;;;;4.83;2.40;;;3.70;99.90;;;;;;5058042;28;20482;-70
2022/02/25 06:09:45;;;;;;;6.07;2.63;;;3.60;99.90;;;;;;5057883;28;20462;-70
2022/02/25 06:12:12;;;;;;;7.03;2.97;;;3.60;99.90;;;;;;5058118;28;20490;-70
2022/02/25 06:14:39;;;;;;;4.17;3.00;;;3.60;99.90;;;;;;5058288;28;20619;-70
2022/02/25 06:17:05;;;;;;;6.30;3.10;;;3.60;99.90;;;;;;5057855;28;20456;-72
2022/02/25 06:19:33;;;;;;;8.13;3.07;;;3.60;99.90;;;;;;5057809;28;20473;-69
2022/02/25 06:22:00;;;;;;;3.63;3.20;;;3.50;99.90;;;;;;5057728;28;20463;-69
2022/02/25 06:24:27;;;;;;;4.17;2.60;;;3.60;99.90;;;;;;5057665;28;20454;-70
2022/02/25 06:26:54;;;;;;;3.90;3.23;;;3.50;99.90;;;;;;5057567;28;20460;-69
2022/02/25 06:29:21;;;;;;;5.73;2.90;;;3.50;99.90;;;;;;5057427;28;20439;-70
2022/02/25 06:31:47;;;;;;;5.07;3.43;;;3.60;99.90;;;;;;5057883;28;20470;-69
2022/02/25 06:34:14;;;;;;;5.77;3.27;;;3.60;99.90;;;;;;5057557;28;20478;-70
2022/02/25 06:36:42;;;;;;;4.90;2.70;;;3.60;99.90;;;;;;5057413;28;20455;-71
2022/02/25 06:39:09;;;;;;;5.83;3.67;;;3.70;99.90;;;;;;5062322;28;20517;-70
2022/02/25 06:41:36;;;;;;;7.17;3.20;;;3.70;99.90;;;;;;5062330;28;20475;-70
2022/02/25 06:44:04;;;;;;;5.20;2.90;;;3.80;99.90;;;;;;5062573;28;20569;-70
2022/02/25 06:46:30;;;;;;;5.70;3.27;;;3.80;99.90;;;;;;5060700;28;20452;-70
2022/02/25 06:48:57;;;;;;;8.33;2.87;;;3.80;99.90;;;;;;5059207;28;20459;-70
2022/02/25 06:51:24;;;;;;;5.03;3.17;;;3.90;99.90;;;;;;5059334;28;20462;-70
2022/02/25 06:53:53;;;;;;;3.60;2.90;;;3.90;99.90;;;;;;5058012;28;20458;-70
2022/02/25 06:56:20;;;;;;;11.90;3.70;;;3.90;99.90;;;;;;5058058;28;20546;-70
2022/02/25 06:58:47;;;;;;;9.10;3.77;;;3.90;99.90;;;;;;5057586;28;20487;-70
2022/02/25 07:01:14;;;;;;;6.00;3.37;;;3.90;99.90;;;;;;5056783;28;20908;-70
2022/02/25 07:03:40;;;;;;;6.23;3.57;;;4.00;99.90;;;;;;5057360;28;20479;-70
2022/02/25 07:06:07;;;;;;;6.27;3.40;;;4.00;99.90;;;;;;5057260;28;20759;-70
2022/02/25 07:08:34;;;;;;;7.27;4.07;;;4.10;99.90;;;;;;5056781;28;20455;-70
2022/02/25 07:11:02;;;;;;;5.50;3.40;;;4.10;99.90;;;;;;5056630;28;20466;-70
2022/02/25 07:13:29;;;;;;;7.53;3.07;;;4.10;99.90;;;;;;5056281;28;20798;-71
2022/02/25 07:15:58;;;;;;;6.07;3.10;;;4.10;99.90;;;;;;5056449;28;20787;-71
2022/02/25 07:18:24;;;;;;;11.77;3.40;;;4.20;99.90;;;;;;5056166;28;20529;-70
2022/02/25 07:20:51;;;;;;;7.80;3.53;;;4.20;99.90;;;;;;5056229;28;20788;-71
2022/02/25 07:23:18;;;;;;;9.47;3.50;;;4.20;99.90;;;;;;5056157;28;20491;-70
2022/02/25 07:25:45;;;;;;;4.83;3.37;;;4.30;99.90;;;;;;5056076;28;20455;-70
2022/02/25 07:28:13;;;;;;;3.60;2.97;;;4.30;99.90;;;;;;5055871;28;20930;-70
2022/02/25 07:30:40;;;;;;;5.03;3.20;;;4.40;99.90;;;;;;5056237;28;20463;-70
2022/02/25 07:33:07;;;;;;;4.83;3.20;;;4.40;99.90;;;;;;5055690;28;20455;-70
2022/02/25 07:35:34;;;;;;;5.00;3.33;;;4.40;99.90;;;;;;5055752;28;20927;-69
2022/02/25 07:38:01;;;;;;;5.17;3.40;;;4.40;99.90;;;;;;5055953;28;20470;-70
2022/02/25 07:40:28;;;;;;;5.83;3.20;;;4.40;99.90;;;;;;5055898;28;20574;-70
2022/02/25 07:42:56;;;;;;;5.53;3.10;;;4.40;99.90;;;;;;5055927;28;20483;-71
2022/02/25 07:45:25;;;;;;;3.57;2.90;;;4.50;99.90;;;;;;5055843;28;20834;-71
2022/02/25 07:47:52;;;;;;;7.50;2.90;;;4.50;99.90;;;;;;5055632;28;20923;-70
2022/02/25 07:50:19;;;;;;;9.77;3.20;;;4.50;99.90;;;;;;5056079;28;20455;-71
2022/02/25 07:52:46;;;;;;;5.70;3.50;;;4.50;99.90;;;;;;5055819;28;20462;-72
2022/02/25 07:55:14;;;;;;;3.47;2.83;;;4.50;99.90;;;;;;5055028;28;20459;-70
2022/02/25 07:57:41;;;;;;;6.43;3.30;;;4.50;99.90;;;;;;5055624;28;20506;-70
2022/02/25 08:00:10;;;;;;;8.47;3.07;;;4.50;99.90;;;;;;5055616;28;20459;-70
2022/02/25 08:02:39;;;;;;;5.83;3.23;;;4.50;99.90;;;;;;5055612;28;20455;-71
2022/02/25 08:05:07;;;;;;;8.20;2.97;;;4.50;99.90;;;;;;5055206;28;20459;-71
2022/02/25 08:07:34;;;;;;;4.90;3.13;;;4.50;99.90;;;;;;5055459;28;20550;-71
2022/02/25 08:10:01;;;;;;;6.10;3.47;;;4.50;99.90;;;;;;5056323;28;20853;-69
2022/02/25 08:12:27;;;;;;;6.70;3.20;;;4.50;99.90;;;;;;5055616;28;20542;-71
2022/02/25 08:14:54;;;;;;;10.77;3.17;;;4.60;99.90;;;;;;5055151;28;20462;-70
2022/02/25 08:17:23;;;;;;;11.47;3.00;;;4.60;99.90;;;;;;5055060;28;20458;-71
2022/02/25 08:19:51;;;;;;;4.80;2.60;;;4.70;99.90;;;;;;5054836;28;20508;-71
2022/02/25 08:22:20;;;;;;;9.17;2.60;;;4.70;99.90;;;;;;5055137;28;20455;-70
2022/02/25 08:24:47;;;;;;;6.37;3.30;;;4.70;99.90;;;;;;5055037;28;20525;-70
2022/02/25 08:27:14;;;;;;;5.37;2.83;;;4.70;99.90;;;;;;5054974;28;20474;-70
2022/02/25 08:29:41;;;;;;;4.40;2.47;;;4.80;99.90;;;;;;5055017;28;20470;-70
2022/02/25 08:32:10;;;;;;;5.33;2.40;;;4.80;99.90;;;;;;5055418;28;20474;-72
2022/02/25 08:34:36;;;;;;;6.53;2.77;;;4.80;99.90;;;;;;5055223;28;20455;-70
2022/02/25 08:37:05;;;;;;;4.90;2.63;;;4.80;99.90;;;;;;5055430;28;20463;-71
2022/02/25 08:39:31;;;;;;;3.80;2.70;;;4.80;99.90;;;;;;5055571;28;20482;-72
2022/02/25 08:41:58;;;;;;;4.63;3.10;;;4.80;99.90;;;;;;5055730;28;20482;-71
2022/02/25 08:44:25;;;;;;;4.10;2.40;;;4.90;99.90;;;;;;5055439;28;20498;-70
2022/02/25 08:46:52;;;;;;;4.60;2.53;;;5.00;99.90;;;;;;5055133;28;20462;-69
2022/02/25 08:49:19;;;;;;;5.70;3.23;;;5.00;99.90;;;;;;5055363;28;20470;-70
2022/02/25 08:51:47;;;;;;;5.13;2.63;;;5.10;99.90;;;;;;5055081;28;20818;-71
2022/02/25 08:54:17;;;;;;;5.87;2.90;;;5.10;99.90;;;;;;5055487;28;20451;-71
2022/02/25 08:56:44;;;;;;;5.90;2.67;;;5.10;99.90;;;;;;5054788;28;20463;-70
2022/02/25 08:59:11;;;;;;;5.43;2.43;;;5.20;99.90;;;;;;5055069;28;20941;-70
2022/02/25 09:01:38;;;;;;;4.97;2.73;;;5.20;99.90;;;;;;5055185;28;20477;-70
2022/02/25 09:04:05;;;;;;;5.87;2.30;;;5.30;99.90;;;;;;5055013;28;20490;-70
2022/02/25 09:06:32;;;;;;;3.40;2.20;;;5.30;99.90;;;;;;5055279;28;20459;-69
2022/02/25 09:08:59;;;;;;;4.60;2.50;;;5.30;99.90;;;;;;5054843;28;20521;-71
2022/02/25 09:11:27;;;;;;;6.90;2.60;;;5.40;99.90;;;;;;5055363;28;20455;-70
2022/02/25 09:13:54;;;;;;;8.93;2.90;;;5.40;99.90;;;;;;5057458;28;20463;-69
2022/02/25 09:16:20;;;;;;;3.57;2.40;;;5.40;99.90;;;;;;5058150;28;20466;-70
2022/02/25 09:18:48;;;;;;;8.13;2.30;;;5.40;99.90;;;;;;5057771;28;20451;-70
2022/02/25 09:21:17;;;;;;;5.33;2.60;;;5.50;99.90;;;;;;5055030;28;20459;-70
2022/02/25 09:23:44;;;;;;;9.90;3.00;;;5.60;99.90;;;;;;5055081;28;20576;-70
2022/02/25 09:26:11;;;;;;;8.47;3.67;;;5.60;99.90;;;;;;5054764;28;20459;-69
2022/02/25 09:28:41;;;;;;;9.73;2.67;;;5.60;99.90;;;;;;5054959;28;20462;-71
2022/02/25 09:31:08;;;;;;;8.63;2.70;;;5.70;99.90;;;;;;5055520;28;20926;-71
2022/02/25 09:33:36;;;;;;;6.20;2.50;;;5.80;99.90;;;;;;5058881;28;20509;-70
2022/02/25 09:36:03;;;;;;;6.27;2.77;;;5.90;99.90;;;;;;5058412;28;20497;-69
2022/02/25 09:38:29;;;;;;;5.20;2.43;;;6.00;99.90;;;;;;5058566;28;20730;-69
2022/02/25 09:40:56;;;;;;;11.67;2.30;;;6.00;99.90;;;;;;5058047;28;20489;-70
2022/02/25 09:43:24;;;;;;;6.73;2.53;;;6.10;99.90;;;;;;5057966;28;20486;-70
2022/02/25 09:45:52;;;;;;;6.23;2.87;;;6.10;99.90;;;;;;5057789;28;21010;-71
2022/02/25 09:48:19;;;;;;;6.27;2.70;;;6.00;99.90;;;;;;5058206;28;20938;-70
2022/02/25 09:50:48;;;;;;;6.73;2.50;;;6.10;99.90;;;;;;5058937;28;20459;-71
2022/02/25 09:53:15;;;;;;;8.80;2.40;;;6.20;99.90;;;;;;5059080;28;20499;-70
2022/02/25 09:55:41;;;;;;;4.27;2.07;;;6.20;99.90;;;;;;5059626;28;20459;-70
2022/02/25 09:58:08;;;;;;;9.23;3.20;;;6.30;99.90;;;;;;5059597;28;20832;-71
2022/02/25 10:00:38;;;;;;;6.80;2.60;;;6.40;99.90;;;;;;5061632;28;20466;-71
2022/02/25 10:03:11;;;;;;;8.70;2.70;;;6.40;99.90;;;;;;5066494;28;20789;-70
2022/02/25 10:05:38;;;;;;;6.10;2.13;;;6.40;99.90;;;;;;5062195;28;20511;-71
2022/02/25 10:08:16;;;;;;;3.27;2.57;;;6.40;99.90;;;;;;5062563;28;20465;-71
2022/02/25 10:10:45;;;;;;;6.60;2.43;;;6.40;99.90;;;;;;5062029;28;20431;-70
2022/02/25 10:13:13;;;;;;;3.57;2.07;;;6.50;99.90;;;;;;5061073;28;20454;-70
2022/02/25 10:15:42;;;;;;;10.07;2.57;;;6.70;99.90;;;;;;5058053;28;20481;-71
2022/02/25 10:18:14;;;;;;;8.03;2.40;;;6.90;99.90;;;;;;5058140;28;20470;-70
2022/02/25 10:20:42;;;;;;;7.60;3.03;;;7.00;99.90;;;;;;5058070;28;20439;-70
2022/02/25 10:23:24;;;;;;;6.83;2.50;;;6.90;99.90;;;;;;5057825;28;20455;-70
2022/02/25 10:25:51;;;;;;;5.40;2.47;;;6.90;99.90;;;;;;5058123;28;20439;-69
2022/02/25 10:28:30;;;;;;;7.20;2.57;;;6.90;99.90;;;;;;5057947;28;20456;-71
2022/02/25 10:31:21;;;;;;;6.50;2.50;;;7.00;99.90;;;;;;5057647;28;20912;-69
2022/02/25 10:34:03;;;;;;;4.43;2.10;;;7.00;99.90;;;;;;5057263;28;20744;-71
2022/02/25 10:36:40;;;;;;;4.60;2.37;;;7.00;99.90;;;;;;5057574;28;20439;-70
2022/02/25 10:39:07;;;;;;;6.80;2.30;;;6.90;99.90;;;;;;5058213;28;20439;-71
2022/02/25 10:41:34;;;;;;;5.80;2.47;;;6.90;99.90;;;;;;5056157;28;20478;-71
2022/02/25 10:44:01;;;;;;;6.27;2.43;;;6.80;99.90;;;;;;5056674;28;20868;-71
2022/02/25 10:46:29;;;;;;;7.77;2.50;;;6.90;99.90;;;;;;5057125;28;20459;-70
2022/02/25 10:49:07;;;;;;;8.57;2.77;;;7.00;99.90;;;;;;5056748;28;20455;-70
2022/02/25 10:51:36;;;;;;;5.63;2.00;;;6.90;99.90;;;;;;5056650;28;20848;-71
2022/02/25 10:54:04;;;;;;;3.53;2.17;;;6.90;99.90;;;;;;5056347;28;20459;-70
2022/02/25 10:56:43;;;;;;;7.37;2.50;;;6.90;99.90;;;;;;5056472;28;20467;-70
2022/02/25 10:59:11;;;;;;;4.40;2.30;;;6.80;99.90;;;;;;5056509;28;20447;-71
2022/02/25 11:01:39;;;;;;;8.20;2.77;;;6.90;99.90;;;;;;5056877;28;20538;-70
2022/02/25 11:04:09;;;;;;;8.07;2.80;;;6.80;99.90;;;;;;5055955;28;20649;-70
2022/02/25 11:06:36;;;;;;;4.43;2.10;;;6.80;99.90;;;;;;5056891;28;20465;-69
2022/02/25 11:09:07;;;;;;;5.77;2.50;;;6.80;99.90;;;;;;5056428;28;20463;-71
2022/02/25 11:11:35;;;;;;;5.73;2.30;;;6.70;99.90;;;;;;5056645;28;20462;-71
2022/02/25 11:14:04;;;;;;;9.87;2.20;;;6.80;99.90;;;;;;5058015;28;20514;-71
2022/02/25 11:16:33;;;;;;;7.47;2.50;;;6.80;99.90;;;;;;5060345;28;20520;-70
2022/02/25 11:19:02;;;;;;;9.00;2.43;;;6.80;99.90;;;;;;5064358;28;20451;-71
2022/02/25 11:21:31;;;;;;;2.70;1.90;;;6.80;99.90;;;;;;5066719;28;20477;-72
2022/02/25 11:23:58;;;;;;;4.70;2.10;;;6.90;99.90;;;;;;5058883;28;20493;-70
2022/02/25 11:26:24;;;;;;;3.47;1.90;;;7.00;99.90;;;;;;5059551;28;20520;-71
2022/02/25 11:28:52;;;;;;;6.70;3.40;;;7.10;99.90;;;;;;5056885;28;20467;-70
2022/02/25 11:31:23;;;;;;;6.20;2.17;;;7.20;99.90;;;;;;5055656;28;20469;-71
2022/02/25 11:33:51;;;;;;;2.77;2.07;;;7.30;99.90;;;;;;5055779;28;20473;-69
2022/02/25 11:36:18;;;;;;;4.57;1.93;;;7.30;99.90;;;;;;5055432;28;20532;-71
2022/02/25 11:38:48;;;;;;;7.03;1.80;;;7.30;99.90;;;;;;5055735;28;20491;-71
2022/02/25 11:41:17;;;;;;;6.20;2.40;;;7.20;99.90;;;;;;5054963;28;21025;-70
2022/02/25 11:43:46;;;;;;;7.27;2.50;;;7.30;99.90;;;;;;5055199;28;20459;-71
2022/02/25 11:46:15;;;;;;;4.33;2.27;;;7.30;99.90;;;;;;5055446;28;20490;-70
2022/02/25 11:48:47;;;;;;;4.03;1.97;;;7.30;99.90;;;;;;5056506;28;20459;-71
2022/02/25 11:51:35;;;;;;;3.90;2.40;;;7.30;99.90;;;;;;5055971;28;20443;-71
2022/02/25 11:54:35;;;;;;;4.03;2.70;;;7.20;99.90;;;;;;5055624;28;20775;-72
2022/02/25 11:57:25;;;;;;;3.60;2.10;;;7.20;99.90;;;;;;5056242;28;20786;-71
2022/02/25 12:00:18;;;;;;;4.67;2.10;;;7.10;99.90;;;;;;5055884;28;20796;-70
2022/02/25 12:03:08;;;;;;;6.70;2.80;;;7.10;99.90;;;;;;5055025;28;20884;-70
2022/02/25 12:05:45;;;;;;;8.20;3.97;;;7.20;99.90;;;;;;5046135;28;20471;-71
2022/02/25 12:08:26;;;;;;;5.75;2.15;;;7.20;99.90;;;;;;5055686;28;20474;-71
2022/02/25 12:10:53;;;;;;;4.47;2.50;;;7.20;99.90;;;;;;5055617;28;20196;-69
2022/02/25 12:13:30;;;;;;;6.47;2.33;;;7.30;99.90;;;;;;5055348;28;20915;-73
2022/02/25 12:15:57;;;;;;;5.83;2.73;;;7.40;99.90;;;;;;5055020;28;20849;-72
2022/02/25 12:18:38;;;;;;;4.37;2.70;;;7.40;99.90;;;;;;5055147;28;20470;-72
2022/02/25 12:21:10;;;;;;;6.17;2.30;;;7.40;99.90;;;;;;5054468;28;20989;-71
2022/02/25 12:23:43;;;;;;;5.97;2.30;;;7.50;99.90;;;;;;5055901;28;20450;-71
2022/02/25 12:26:11;;;;;;;6.10;2.80;;;7.50;99.90;;;;;;5054841;28;20474;-72
2022/02/25 12:28:45;;;;;;;5.73;2.53;;;7.40;99.90;;;;;;5054881;28;20455;-71
2022/02/25 12:31:14;;;;;;;7.60;2.60;;;7.40;99.90;;;;;;5054414;28;20442;-71
2022/02/25 12:33:53;;;;;;;4.53;2.40;;;7.40;99.90;;;;;;5054779;28;20466;-71
2022/02/25 12:36:37;;;;;;;4.13;2.77;;;7.40;99.90;;;;;;5054511;28;20542;-71
2022/02/25 12:39:06;;;;;;;9.73;2.60;;;7.40;99.90;;;;;;5054362;28;20453;-72
2022/02/25 12:41:37;;;;;;;7.77;3.87;;;7.30;99.90;;;;;;5055217;28;20489;-71
2022/02/25 12:44:08;;;;;;;4.93;3.00;;;7.20;99.90;;;;;;5054890;28;20435;-71
2022/02/25 12:46:37;;;;;;;7.67;2.63;;;7.10;99.90;;;;;;5055258;28;20774;-71
2022/02/25 12:49:07;;;;;;;5.43;2.40;;;7.10;99.90;;;;;;5055631;28;20470;-73
2022/02/25 12:51:35;;;;;;;3.10;2.57;;;7.10;99.90;;;;;;5054676;28;20443;-70
2022/02/25 12:54:04;;;;;;;4.63;2.30;;;7.10;99.90;;;;;;5057085;28;20455;-73
2022/02/25 12:56:33;;;;;;;6.57;2.30;;;7.10;99.90;;;;;;5058564;28;20459;-71
2022/02/25 12:59:01;;;;;;;10.00;2.70;;;7.10;99.90;;;;;;5056616;28;20577;-71
2022/02/25 13:01:31;;;;;;;8.97;2.67;;;7.10;99.90;;;;;;5054951;28;20498;-71
2022/02/25 13:03:59;;;;;;;6.00;2.60;;;6.90;99.90;;;;;;5054506;28;20470;-71
2022/02/25 13:06:28;;;;;;;9.23;2.67;;;6.80;99.90;;;;;;5057655;28;20489;-70
2022/02/25 13:08:56;;;;;;;9.90;3.37;;;6.70;99.90;;;;;;5058590;28;20465;-71
2022/02/25 13:11:24;;;;;;;3.50;2.33;;;6.60;99.90;;;;;;5058951;28;20455;-71